createdAt,value
2022-12-08T00:01:55.149Z,5.10
2022-12-08T00:04:25.455Z,5.30
2022-12-08T00:07:24.037Z,5.57
2022-12-08T00:09:59.265Z,6.17
2022-12-08T00:12:34.052Z,6.13
2022-12-08T00:15:02.725Z,6.40
2022-12-08T00:17:37.861Z,6.60
2022-12-08T00:20:09.120Z,7.20
2022-12-08T00:22:43.869Z,7.47
2022-12-08T00:25:12.067Z,8.00
2022-12-08T00:27:46.924Z,8.33
2022-12-08T00:30:15.511Z,8.47
2022-12-08T00:32:50.073Z,8.43
2022-12-08T00:35:20.128Z,9.37
2022-12-08T00:38:00.490Z,9.33
2022-12-08T00:40:29.217Z,9.57
2022-12-08T00:43:03.925Z,9.70
2022-12-08T00:45:32.114Z,10.23
2022-12-08T00:48:07.077Z,10.63
2022-12-08T00:50:37.231Z,11.03
2022-12-08T00:53:11.933Z,11.53
2022-12-08T00:55:40.447Z,12.40
2022-12-08T00:58:15.120Z,13.37
2022-12-08T01:00:44.299Z,13.53
2022-12-08T01:03:20.178Z,14.27
2022-12-08T01:05:50.147Z,13.80
2022-12-08T01:08:31.949Z,13.70
2022-12-08T01:11:05.076Z,15.47
2022-12-08T01:13:39.963Z,15.27
2022-12-08T01:16:08.633Z,15.93
2022-12-08T01:18:44.927Z,16.80
2022-12-08T01:21:14.975Z,17.33
2022-12-08T01:23:49.892Z,17.87
2022-12-08T01:26:20.184Z,18.53
2022-12-08T01:28:55.935Z,17.53
2022-12-08T01:31:25.165Z,19.73
2022-12-08T01:33:59.999Z,18.93
2022-12-08T01:36:31.648Z,18.83
2022-12-08T01:39:07.942Z,19.80
2022-12-08T01:41:39.616Z,20.10
2022-12-08T01:44:46.910Z,19.63
2022-12-08T01:47:15.161Z,19.33
2022-12-08T01:49:49.929Z,20.37
2022-12-08T01:52:24.750Z,19.80
2022-12-08T01:55:03.008Z,20.60
2022-12-08T01:57:35.480Z,20.40
2022-12-08T02:00:14.139Z,21.27
2022-12-08T02:03:00.965Z,21.57
2022-12-08T02:05:46.165Z,19.87
2022-12-08T02:08:16.273Z,21.40
2022-12-08T02:10:52.063Z,20.27
2022-12-08T02:13:23.484Z,20.07
2022-12-08T02:16:09.100Z,21.50
2022-12-08T02:19:22.428Z,20.63
2022-12-08T02:21:51.671Z,20.53
2022-12-08T02:24:38.111Z,20.53
2022-12-08T02:27:36.876Z,20.87
2022-12-08T02:30:20.910Z,20.27
2022-12-08T02:33:35.543Z,20.23
2022-12-08T02:36:18.018Z,19.70
2022-12-08T02:38:55.187Z,19.03
2022-12-08T02:41:39.971Z,20.07
2022-12-08T02:44:13.909Z,20.17
2022-12-08T02:46:54.018Z,20.57
2022-12-08T02:49:22.517Z,20.53
2022-12-08T02:51:58.997Z,20.13
2022-12-08T02:54:27.520Z,20.33
2022-12-08T02:57:26.016Z,20.67
2022-12-08T03:00:08.054Z,18.63
2022-12-08T03:02:56.045Z,19.40
2022-12-08T03:05:43.608Z,18.73
2022-12-08T03:08:28.036Z,19.47
2022-12-08T03:11:02.104Z,19.77
2022-12-08T03:13:44.319Z,18.30
2022-12-08T03:16:19.188Z,19.40
2022-12-08T03:18:57.187Z,20.50
2022-12-08T03:21:26.075Z,19.13
2022-12-08T03:24:04.992Z,20.50
2022-12-08T03:26:39.959Z,20.47
2022-12-08T03:29:15.192Z,19.53
2022-12-08T03:31:47.864Z,20.03
2022-12-08T03:34:25.211Z,20.87
2022-12-08T03:36:53.837Z,20.10
2022-12-08T03:39:30.054Z,20.07
2022-12-08T03:41:58.464Z,20.00
2022-12-08T03:44:33.032Z,20.57
2022-12-08T03:47:01.274Z,21.23
2022-12-08T03:49:36.034Z,20.47
2022-12-08T03:52:04.282Z,21.70
2022-12-08T03:54:39.989Z,21.20
2022-12-08T03:57:08.567Z,21.10
2022-12-08T03:59:43.158Z,20.20
2022-12-08T04:02:31.204Z,20.03
2022-12-08T04:05:06.041Z,19.67
2022-12-08T04:07:34.294Z,19.60
2022-12-08T04:10:11.091Z,19.70
2022-12-08T04:12:39.492Z,19.40
2022-12-08T04:15:15.099Z,19.47
2022-12-08T04:17:43.412Z,17.63
2022-12-08T04:20:19.301Z,18.43
2022-12-08T04:22:47.674Z,18.17
2022-12-08T04:25:24.139Z,18.33
2022-12-08T04:27:52.966Z,17.83
2022-12-08T04:30:28.105Z,17.97
2022-12-08T04:32:56.613Z,18.20
2022-12-08T04:35:31.083Z,18.10
2022-12-08T04:37:59.714Z,18.10
2022-12-08T04:40:36.277Z,18.80
2022-12-08T04:43:04.591Z,18.40
2022-12-08T04:45:39.268Z,19.97
2022-12-08T04:48:08.295Z,18.80
2022-12-08T04:50:44.178Z,18.60
2022-12-08T04:53:14.182Z,18.87
2022-12-08T04:55:55.160Z,19.03
2022-12-08T04:58:26.260Z,18.43
2022-12-08T05:01:03.400Z,18.13
2022-12-08T05:03:52.171Z,16.97
2022-12-08T05:06:20.531Z,17.07
2022-12-08T05:08:56.285Z,15.80
2022-12-08T05:11:25.957Z,15.30
2022-12-08T05:14:01.308Z,15.90
2022-12-08T05:16:29.962Z,15.00
2022-12-08T05:19:05.102Z,14.37
2022-12-08T05:21:33.477Z,14.70
2022-12-08T05:24:08.234Z,13.47
2022-12-08T05:26:38.094Z,13.47
2022-12-08T05:29:13.108Z,14.03
2022-12-08T05:31:41.486Z,15.00
2022-12-08T05:34:16.052Z,14.33
2022-12-08T05:36:44.553Z,14.50
2022-12-08T05:39:21.127Z,14.63
2022-12-08T05:41:51.037Z,15.10
2022-12-08T05:44:26.090Z,14.30
2022-12-08T05:46:54.975Z,13.40
2022-12-08T05:49:30.350Z,11.57
2022-12-08T05:51:58.857Z,10.90
2022-12-08T05:54:34.206Z,11.30
2022-12-08T05:57:03.860Z,11.40
2022-12-08T05:59:39.336Z,11.40
2022-12-08T06:02:08.834Z,12.87
2022-12-08T06:04:51.213Z,12.27
2022-12-08T06:07:19.781Z,11.40
2022-12-08T06:09:54.218Z,12.63
2022-12-08T06:12:24.573Z,12.73
2022-12-08T06:14:59.136Z,13.43
2022-12-08T06:17:27.512Z,13.97
2022-12-08T06:20:03.570Z,13.90
2022-12-08T06:22:32.488Z,13.50
2022-12-08T06:25:09.967Z,13.63
2022-12-08T06:27:40.179Z,13.30
2022-12-08T06:30:16.258Z,13.47
2022-12-08T06:32:45.211Z,13.97
2022-12-08T06:35:20.175Z,14.00
2022-12-08T06:37:48.591Z,14.60
2022-12-08T06:40:24.137Z,16.10
2022-12-08T06:42:54.268Z,15.83
2022-12-08T06:45:29.276Z,16.07
2022-12-08T06:47:57.765Z,15.67
2022-12-08T06:50:32.179Z,16.27
2022-12-08T06:53:05.079Z,16.03
2022-12-08T06:55:58.892Z,16.83
2022-12-08T06:58:29.526Z,15.50
2022-12-08T07:01:04.217Z,16.20
2022-12-08T07:03:39.640Z,16.27
2022-12-08T07:06:24.387Z,17.07
2022-12-08T07:08:53.063Z,17.17
2022-12-08T07:11:28.389Z,16.90
2022-12-08T07:13:59.058Z,16.83
2022-12-08T07:16:34.445Z,17.23
2022-12-08T07:19:03.044Z,17.40
2022-12-08T07:21:39.212Z,17.30
2022-12-08T07:24:08.616Z,17.67
2022-12-08T07:26:44.413Z,16.07
2022-12-08T07:29:14.680Z,16.20
2022-12-08T07:31:49.451Z,15.93
2022-12-08T07:34:18.047Z,15.47
2022-12-08T07:36:53.433Z,16.50
2022-12-08T07:39:21.867Z,14.67
2022-12-08T07:41:57.404Z,14.83
2022-12-08T07:44:27.350Z,14.37
2022-12-08T07:47:02.340Z,13.90
2022-12-08T07:49:30.627Z,14.03
2022-12-08T07:52:05.240Z,14.60
2022-12-08T07:54:33.715Z,12.57
2022-12-08T07:57:10.328Z,14.27
2022-12-08T07:59:40.696Z,13.47
2022-12-08T08:02:25.249Z,13.40
2022-12-08T08:05:02.242Z,12.73
2022-12-08T08:07:39.280Z,12.83
2022-12-08T08:10:09.013Z,12.63
2022-12-08T08:12:44.256Z,13.10
2022-12-08T08:15:14.490Z,12.30
2022-12-08T08:17:49.457Z,11.47
2022-12-08T08:20:17.900Z,12.30
2022-12-08T08:22:54.325Z,12.20
2022-12-08T08:25:24.330Z,11.57
2022-12-08T08:27:59.446Z,11.63
2022-12-08T08:30:29.443Z,10.70
2022-12-08T08:33:04.275Z,11.30
2022-12-08T08:35:32.430Z,11.23
2022-12-08T08:38:08.255Z,11.50
2022-12-08T08:40:43.273Z,12.27
2022-12-08T08:43:34.348Z,11.37
2022-12-08T08:46:15.272Z,11.03
2022-12-08T08:48:44.246Z,11.47
2022-12-08T08:51:23.600Z,11.10
2022-12-08T08:53:52.090Z,11.47
2022-12-08T08:56:28.363Z,11.13
2022-12-08T08:58:56.658Z,11.47
2022-12-08T09:01:35.518Z,12.37
2022-12-08T09:04:11.490Z,11.50
2022-12-08T09:06:46.352Z,11.40
2022-12-08T09:09:15.137Z,12.23
2022-12-08T09:11:51.485Z,11.13
2022-12-08T09:14:19.955Z,12.53
2022-12-08T09:16:56.323Z,11.60
2022-12-08T09:19:24.678Z,12.63
2022-12-08T09:21:59.403Z,12.30
2022-12-08T09:24:28.119Z,11.90
2022-12-08T09:27:03.508Z,12.77
2022-12-08T09:29:35.959Z,11.40
2022-12-08T09:32:13.378Z,11.57
2022-12-08T09:34:41.714Z,11.50
2022-12-08T09:37:16.584Z,13.10
2022-12-08T09:39:45.394Z,12.07
2022-12-08T09:42:21.336Z,11.03
2022-12-08T09:45:00.334Z,11.70
2022-12-08T09:47:40.326Z,11.13
2022-12-08T09:50:17.045Z,11.33
2022-12-08T09:52:55.370Z,10.73
2022-12-08T09:55:30.094Z,11.33
2022-12-08T09:58:09.390Z,10.83
2022-12-08T10:00:37.726Z,10.33
2022-12-08T10:03:18.615Z,10.60
2022-12-08T10:06:01.756Z,9.37
2022-12-08T10:08:45.684Z,10.30
2022-12-08T10:11:24.900Z,10.27
2022-12-08T10:14:06.356Z,11.80
2022-12-08T10:16:38.420Z,11.33
2022-12-08T10:19:22.384Z,11.10
2022-12-08T10:21:52.531Z,9.70
2022-12-08T10:24:33.533Z,11.40
2022-12-08T10:27:03.871Z,10.97
2022-12-08T10:29:39.675Z,10.47
2022-12-08T10:32:18.139Z,10.90
2022-12-08T10:35:13.448Z,11.70
2022-12-08T10:37:43.429Z,11.07
2022-12-08T10:40:21.419Z,10.17
2022-12-08T10:42:52.770Z,11.07
2022-12-08T10:45:33.564Z,10.67
2022-12-08T10:48:04.477Z,10.90
2022-12-08T10:50:52.811Z,10.80
2022-12-08T10:53:23.804Z,11.53
2022-12-08T10:56:00.470Z,11.07
2022-12-08T10:58:35.790Z,11.10
2022-12-08T11:01:18.521Z,12.27
2022-12-08T11:04:09.433Z,10.37
2022-12-08T11:06:47.611Z,11.10
2022-12-08T11:09:44.467Z,12.30
2022-12-08T11:12:15.918Z,10.80
2022-12-08T11:15:02.419Z,11.47
2022-12-08T11:17:39.352Z,12.13
2022-12-08T11:20:29.512Z,11.70
2022-12-08T11:22:59.260Z,11.47
2022-12-08T11:25:35.378Z,12.07
2022-12-08T11:28:12.094Z,11.53
2022-12-08T11:30:54.451Z,10.97
2022-12-08T11:33:25.137Z,10.03
2022-12-08T11:36:04.608Z,10.90
2022-12-08T11:38:36.321Z,9.83
2022-12-08T11:41:16.647Z,8.90
2022-12-08T11:43:52.215Z,9.40
2022-12-08T11:46:31.609Z,10.90
2022-12-08T11:49:06.807Z,8.93
2022-12-08T11:51:44.526Z,8.17
2022-12-08T11:54:23.694Z,8.80
2022-12-08T11:57:02.616Z,6.90
2022-12-08T11:59:34.351Z,7.80
2022-12-08T12:02:10.568Z,7.33
2022-12-08T12:04:50.941Z,7.20
2022-12-08T12:08:01.512Z,7.10
2022-12-08T12:10:43.435Z,6.90
2022-12-08T12:13:35.667Z,7.43
2022-12-08T12:16:42.065Z,8.03
2022-12-08T12:19:22.516Z,7.60
2022-12-08T12:21:54.560Z,7.43
2022-12-08T12:24:35.752Z,6.93
2022-12-08T12:27:09.353Z,6.70
2022-12-08T12:29:52.274Z,7.20
2022-12-08T12:32:25.991Z,6.80
2022-12-08T12:35:05.655Z,6.83
2022-12-08T12:37:40.724Z,6.80
2022-12-08T12:40:25.677Z,6.97
2022-12-08T12:43:23.573Z,7.30
2022-12-08T12:46:46.653Z,6.63
2022-12-08T12:50:07.385Z,7.03
2022-12-08T12:52:50.506Z,6.90
2022-12-08T12:55:52.487Z,6.53
2022-12-08T12:58:47.526Z,6.70
2022-12-08T13:01:45.703Z,6.10
2022-12-08T13:04:20.687Z,5.63
2022-12-08T13:06:58.151Z,6.47
2022-12-08T13:09:42.503Z,5.60
2022-12-08T13:12:13.707Z,6.13
2022-12-08T13:14:55.666Z,6.10
2022-12-08T13:17:30.382Z,6.00
2022-12-08T13:20:07.922Z,6.00
2022-12-08T13:23:09.208Z,6.03
2022-12-08T13:26:17.520Z,5.90
2022-12-08T13:29:13.574Z,6.17
2022-12-08T13:31:49.779Z,6.20
2022-12-08T13:34:33.593Z,6.10
2022-12-08T13:37:22.285Z,5.70
2022-12-08T13:40:01.739Z,6.07
2022-12-08T13:42:38.353Z,6.13
2022-12-08T13:48:35.110Z,6.20
2022-12-08T13:57:26.844Z,5.93
2022-12-08T13:59:56.520Z,5.70
2022-12-08T14:02:40.795Z,6.03
2022-12-08T14:09:02.268Z,6.57
2022-12-08T14:11:35.510Z,5.60
2022-12-08T14:14:14.535Z,6.27
2022-12-08T14:16:53.767Z,6.40
2022-12-08T14:19:31.582Z,6.87
2022-12-08T14:22:01.967Z,6.37
2022-12-08T14:24:38.615Z,6.87
2022-12-08T14:27:10.325Z,6.17
2022-12-08T14:29:51.853Z,6.20
2022-12-08T14:32:35.297Z,6.27
2022-12-08T14:35:23.641Z,5.90
2022-12-08T14:37:55.371Z,6.67
2022-12-08T14:40:35.611Z,5.93
2022-12-08T14:43:19.564Z,5.77
2022-12-08T14:45:59.796Z,4.90
2022-12-08T14:48:41.147Z,5.10
2022-12-08T14:51:23.793Z,5.20
2022-12-08T14:53:56.697Z,4.00
2022-12-08T14:56:36.723Z,4.60
2022-12-08T14:59:09.059Z,4.30
2022-12-08T15:01:44.855Z,2.67
2022-12-08T15:04:34.840Z,2.70
2022-12-08T15:07:08.672Z,2.20
2022-12-08T15:09:45.698Z,2.10
2022-12-08T15:12:27.422Z,1.87
2022-12-08T15:15:04.722Z,1.93
2022-12-08T15:17:36.672Z,1.83
2022-12-08T15:20:13.978Z,1.90
2022-12-08T15:22:42.443Z,1.80
2022-12-08T15:25:20.854Z,1.80
2022-12-08T15:27:59.700Z,1.90
2022-12-08T15:30:29.047Z,1.90
2022-12-08T15:33:03.700Z,2.40
2022-12-08T15:35:37.252Z,2.30
2022-12-08T15:38:18.664Z,2.30
2022-12-08T15:40:55.807Z,2.70
2022-12-08T15:43:25.672Z,2.87
2022-12-08T15:46:01.628Z,2.97
2022-12-08T15:48:31.160Z,3.30
2022-12-08T15:51:06.834Z,3.37
2022-12-08T15:53:35.670Z,3.50
2022-12-08T15:56:31.226Z,2.97
2022-12-08T15:59:04.776Z,3.27
2022-12-08T16:01:39.850Z,2.67
2022-12-08T16:05:25.345Z,3.10
2022-12-08T16:07:32.196Z,3.00
2022-12-08T16:10:03.351Z,3.03
2022-12-08T16:15:58.580Z,3.10
2022-12-08T16:18:36.724Z,2.93
2022-12-08T16:21:19.031Z,3.20
2022-12-08T16:24:06.009Z,3.50
2022-12-08T16:27:42.351Z,3.70
2022-12-08T16:29:32.677Z,3.20
2022-12-08T16:32:02.362Z,3.57
2022-12-08T16:34:38.945Z,3.87
2022-12-08T16:37:08.237Z,4.57
2022-12-08T16:39:46.204Z,4.80
2022-12-08T16:42:33.304Z,4.83
2022-12-08T16:45:10.868Z,5.30
2022-12-08T16:47:42.388Z,4.83
2022-12-08T16:50:19.718Z,4.77
2022-12-08T16:52:48.941Z,5.37
2022-12-08T16:55:25.758Z,5.20
2022-12-08T16:57:54.411Z,5.30
2022-12-08T17:00:34.727Z,4.80
2022-12-08T17:03:05.290Z,5.37
2022-12-08T17:05:47.953Z,13.40
2022-12-08T17:08:23.250Z,18.63
2022-12-08T17:11:13.766Z,50.97
2022-12-08T17:13:43.361Z,14.87
2022-12-08T17:16:21.965Z,8.23
2022-12-08T17:18:53.658Z,10.33
2022-12-08T17:21:28.808Z,8.50
2022-12-08T17:23:57.466Z,8.60
2022-12-08T17:26:32.761Z,11.77
2022-12-08T17:29:02.378Z,8.97
2022-12-08T17:31:38.152Z,7.63
2022-12-08T17:34:10.414Z,7.73
2022-12-08T17:36:45.722Z,7.90
2022-12-08T17:39:18.257Z,9.60
2022-12-08T17:41:54.805Z,10.13
2022-12-08T17:44:24.066Z,11.43
2022-12-08T17:46:59.930Z,11.23
2022-12-08T17:49:31.228Z,10.93
2022-12-08T17:52:20.931Z,10.60
2022-12-08T17:54:56.143Z,11.90
2022-12-08T17:57:30.949Z,10.97
2022-12-08T18:00:05.981Z,10.73
2022-12-08T18:02:35.905Z,11.23
2022-12-08T18:05:18.817Z,11.20
2022-12-08T18:07:54.080Z,10.50
2022-12-08T18:10:29.835Z,10.30
2022-12-08T18:12:58.615Z,10.43
2022-12-08T18:15:39.215Z,11.57
2022-12-08T18:18:08.170Z,32.23
2022-12-08T18:20:46.952Z,23.07
2022-12-08T18:23:15.274Z,19.87
2022-12-08T18:25:50.778Z,16.57
2022-12-08T18:28:19.100Z,15.43
2022-12-08T18:30:54.234Z,14.80
2022-12-08T18:33:23.822Z,13.63
2022-12-08T18:36:00.924Z,13.30
2022-12-08T18:38:29.130Z,13.47
2022-12-08T18:41:11.029Z,12.17
2022-12-08T18:43:40.828Z,12.20
2022-12-08T18:46:17.810Z,12.40
2022-12-08T18:48:47.968Z,14.13
2022-12-08T18:51:26.994Z,14.00
2022-12-08T18:53:55.578Z,14.40
2022-12-08T18:56:32.811Z,15.50
2022-12-08T18:59:03.786Z,16.63
2022-12-08T19:01:40.896Z,15.90
2022-12-08T19:04:29.433Z,14.80
2022-12-08T19:07:05.833Z,14.67
2022-12-08T19:09:35.315Z,15.90
2022-12-08T19:12:10.991Z,16.83
2022-12-08T19:14:39.342Z,14.60
2022-12-08T19:17:14.983Z,18.07
2022-12-08T19:19:43.547Z,21.33
2022-12-08T19:22:20.877Z,19.63
2022-12-08T19:24:49.142Z,17.60
2022-12-08T19:27:24.861Z,16.17
2022-12-08T19:29:53.529Z,15.90
2022-12-08T19:32:28.849Z,16.43
2022-12-08T19:34:57.352Z,16.23
2022-12-08T19:37:33.875Z,15.73
2022-12-08T19:40:19.244Z,18.73
2022-12-08T19:43:14.317Z,16.33
2022-12-08T19:45:43.587Z,17.90
2022-12-08T19:48:20.945Z,18.43
2022-12-08T19:50:49.574Z,17.33
2022-12-08T19:53:26.046Z,17.57
2022-12-08T19:55:54.493Z,17.57
2022-12-08T19:58:29.896Z,19.17
2022-12-08T20:00:58.535Z,17.60
2022-12-08T20:03:32.942Z,16.00
2022-12-08T20:06:07.957Z,18.37
2022-12-08T20:08:50.199Z,18.27
2022-12-08T20:11:19.220Z,17.93
2022-12-08T20:13:55.062Z,17.17
2022-12-08T20:16:24.437Z,16.30
2022-12-08T20:18:59.063Z,16.73
2022-12-08T20:21:28.040Z,16.13
2022-12-08T20:24:04.078Z,16.13
2022-12-08T20:26:32.551Z,16.30
2022-12-08T20:29:08.055Z,16.07
2022-12-08T20:31:36.544Z,15.90
2022-12-08T20:34:12.081Z,16.70
2022-12-08T20:36:43.220Z,15.67
2022-12-08T20:39:22.094Z,15.97
2022-12-08T20:42:00.923Z,16.37
2022-12-08T20:44:32.191Z,16.10
2022-12-08T20:47:08.941Z,14.83
2022-12-08T20:49:37.845Z,15.57
2022-12-08T20:52:12.990Z,16.07
2022-12-08T20:54:43.159Z,16.17
2022-12-08T20:57:17.999Z,16.13
2022-12-08T20:59:46.349Z,15.00
2022-12-08T21:02:22.152Z,15.07
2022-12-08T21:04:57.550Z,14.83
2022-12-08T21:07:39.910Z,14.67
2022-12-08T21:10:11.988Z,15.33
2022-12-08T21:12:47.938Z,14.87
2022-12-08T21:15:16.748Z,14.77
2022-12-08T21:17:54.053Z,14.37
2022-12-08T21:20:23.113Z,14.23
2022-12-08T21:22:59.372Z,14.07
2022-12-08T21:25:29.771Z,13.87
2022-12-08T21:28:04.992Z,14.23
2022-12-08T21:30:33.378Z,14.60
2022-12-08T21:33:08.304Z,14.57
2022-12-08T21:35:37.241Z,14.20
2022-12-08T21:38:13.071Z,14.50
2022-12-08T21:40:42.995Z,14.13
2022-12-08T21:43:18.108Z,14.00
2022-12-08T21:45:46.717Z,14.07
2022-12-08T21:48:24.016Z,14.10
2022-12-08T21:50:54.104Z,15.13
2022-12-08T21:53:29.954Z,14.77
2022-12-08T21:55:59.819Z,15.10
2022-12-08T21:58:35.058Z,15.33
2022-12-08T22:01:07.449Z,14.93
2022-12-08T22:03:42.118Z,15.00
2022-12-08T22:06:19.742Z,15.10
2022-12-08T22:09:03.234Z,15.30
2022-12-08T22:11:33.696Z,15.33
2022-12-08T22:14:14.153Z,17.53
2022-12-08T22:16:43.977Z,16.63
2022-12-08T22:19:18.993Z,14.73
2022-12-08T22:21:47.712Z,15.50
2022-12-08T22:24:23.370Z,15.87
2022-12-08T22:26:54.569Z,16.07
2022-12-08T22:29:30.052Z,15.77
2022-12-08T22:31:59.665Z,15.17
2022-12-08T22:34:35.024Z,16.07
2022-12-08T22:37:03.597Z,15.70
2022-12-08T22:39:39.246Z,15.57
2022-12-08T22:42:09.368Z,14.60
2022-12-08T22:44:45.044Z,14.50
2022-12-08T22:47:13.943Z,15.33
2022-12-08T22:49:49.042Z,16.33
2022-12-08T22:52:17.696Z,16.10
2022-12-08T22:54:53.053Z,16.97
2022-12-08T22:57:22.972Z,15.83
2022-12-08T22:59:58.102Z,17.80
2022-12-08T23:02:26.667Z,18.87
2022-12-08T23:05:05.576Z,19.03
2022-12-08T23:07:40.747Z,18.47
2022-12-08T23:10:17.062Z,19.00
2022-12-08T23:12:46.708Z,16.80
2022-12-08T23:15:22.250Z,16.50
2022-12-08T23:17:50.547Z,14.93
2022-12-08T23:20:25.288Z,16.10
2022-12-08T23:22:55.258Z,16.93
2022-12-08T23:25:30.365Z,16.53
2022-12-08T23:28:00.296Z,15.37
2022-12-08T23:30:35.393Z,16.87
2022-12-08T23:33:03.769Z,17.03
2022-12-08T23:35:39.120Z,17.43
2022-12-08T23:38:08.003Z,17.53
2022-12-08T23:40:43.253Z,18.77
2022-12-08T23:43:13.288Z,17.80
2022-12-08T23:45:48.306Z,16.70
2022-12-08T23:48:17.216Z,17.23
2022-12-08T23:50:52.705Z,17.17
2022-12-08T23:53:21.222Z,15.47
2022-12-08T23:55:56.131Z,17.73
2022-12-08T23:58:26.349Z,16.03
